Airfield :







YOU CAN JOIN US ON...

 
LOGIN :

Register | Disclaimer

   EN    FR    IT 

 









Legend :    VFR   Marginal VFR   IFR   Intensive IFR   Very Intensive IFR
Visi :
Ceiling :
>= 8 km
>= 3000ft
5 to 8 km
1000 to 3000 ft
1500m to 5 km
500 to 1000 ft
800 to 1500m
200 to 500 ft
< 800m
< 200 ft
Symbols :   Thunderstorms  Fog  Heavy snow  Heavy precipitations  Wind > 20 kt






- Airport Elevation : 534 ft
- IATA code : PQI


KPQI - Northern Maine Regional Arpt At Presque Isle

CURRENT METAR :
  • 182356Z AUTO 33008KT 10SM SCT070 09/M02 A3010 RMK AO2 SLP223 T00941022 10144 20094 53016

EXPIRED METARs :
  • 182256Z AUTO 35009KT 10SM FEW120 11/M02 A3008 RMK AO2 SLP215 T01061022
  • 182156Z AUTO 34015KT 10SM OVC120 12/M03 A3007 RMK AO2 SLP211 T01171033

TAF KPQI
Valid from the 19 at 00:00 until the 20 at 00:00 UTC


182320Z 1900/1924 34003KT P6SM SKC
KZBW FIR / North America



MET'MAP, your aeronautical weather chart ! - Copyright ORBIFLY December 2007 - Disclaimer

ORBIFLY MET'MAP TEAM :

Programming & Development : Alexandra Zaïnal
Concept & original design : Baudouin d'Aumeries
Assistance for programming : Marc-Olivier Méhu
Technical & hardware support : Manuel Goepfert

Contact : metmap@orbifly.com




SOURCES & CREDITS :

   NOAA